sensor_id;sensor_type;location;lat;lon;timestamp;P1;durP1;ratioP1;P2;durP2;ratioP2
5710;SDS011;61291;52.524;13.422;2023-05-16T00:00:51;65.70;;;61.10;;
5710;SDS011;61291;52.524;13.422;2023-05-16T00:03:22;66.97;;;61.73;;
5710;SDS011;61291;52.524;13.422;2023-05-16T00:05:47;66.70;;;61.60;;
5710;SDS011;61291;52.524;13.422;2023-05-16T00:08:14;67.20;;;62.10;;
5710;SDS011;61291;52.524;13.422;2023-05-16T00:10:40;69.80;;;64.70;;
5710;SDS011;61291;52.524;13.422;2023-05-16T00:13:05;71.90;;;66.53;;
5710;SDS011;61291;52.524;13.422;2023-05-16T00:15:31;72.73;;;67.37;;
5710;SDS011;61291;52.524;13.422;2023-05-16T00:17:57;72.10;;;67.03;;
5710;SDS011;61291;52.524;13.422;2023-05-16T00:20:24;71.75;;;66.20;;
5710;SDS011;61291;52.524;13.422;2023-05-16T00:22:52;70.77;;;65.87;;
5710;SDS011;61291;52.524;13.422;2023-05-16T00:25:18;70.17;;;65.13;;
5710;SDS011;61291;52.524;13.422;2023-05-16T00:27:44;68.47;;;62.60;;
5710;SDS011;61291;52.524;13.422;2023-05-16T00:30:10;71.20;;;66.10;;
5710;SDS011;61291;52.524;13.422;2023-05-16T00:32:36;71.70;;;66.30;;
5710;SDS011;61291;52.524;13.422;2023-05-16T00:35:01;70.67;;;65.57;;
5710;SDS011;61291;52.524;13.422;2023-05-16T00:37:27;72.40;;;66.97;;
5710;SDS011;61291;52.524;13.422;2023-05-16T00:39:53;71.33;;;66.33;;
5710;SDS011;61291;52.524;13.422;2023-05-16T00:42:18;70.67;;;65.20;;
5710;SDS011;61291;52.524;13.422;2023-05-16T00:44:45;68.40;;;63.30;;
5710;SDS011;61291;52.524;13.422;2023-05-16T00:47:11;72.53;;;66.90;;
5710;SDS011;61291;52.524;13.422;2023-05-16T00:49:37;73.43;;;68.00;;
5710;SDS011;61291;52.524;13.422;2023-05-16T00:52:02;74.53;;;68.73;;
5710;SDS011;61291;52.524;13.422;2023-05-16T00:54:29;73.97;;;68.13;;
5710;SDS011;61291;52.524;13.422;2023-05-16T00:56:55;72.33;;;66.93;;
5710;SDS011;61291;52.524;13.422;2023-05-16T00:59:22;65.37;;;60.57;;
5710;SDS011;61291;52.524;13.422;2023-05-16T01:01:48;72.00;;;66.90;;
5710;SDS011;61291;52.524;13.422;2023-05-16T01:04:15;71.30;;;66.13;;
5710;SDS011;61291;52.524;13.422;2023-05-16T01:06:41;73.17;;;67.63;;
5710;SDS011;61291;52.524;13.422;2023-05-16T01:09:07;73.20;;;67.90;;
5710;SDS011;61291;52.524;13.422;2023-05-16T01:11:35;74.60;;;68.90;;
5710;SDS011;61291;52.524;13.422;2023-05-16T01:16:47;76.77;;;70.70;;
5710;SDS011;61291;52.524;13.422;2023-05-16T01:22:11;77.50;;;71.47;;
5710;SDS011;61291;52.524;13.422;2023-05-16T01:27:45;74.30;;;68.67;;
5710;SDS011;61291;52.524;13.422;2023-05-16T01:30:15;80.43;;;74.30;;
5710;SDS011;61291;52.524;13.422;2023-05-16T01:32:42;78.27;;;72.17;;
5710;SDS011;61291;52.524;13.422;2023-05-16T01:35:10;82.30;;;75.63;;
5710;SDS011;61291;52.524;13.422;2023-05-16T01:37:41;80.20;;;74.00;;
5710;SDS011;61291;52.524;13.422;2023-05-16T01:40:22;82.30;;;75.37;;
5710;SDS011;61291;52.524;13.422;2023-05-16T01:42:54;79.57;;;73.33;;
5710;SDS011;61291;52.524;13.422;2023-05-16T01:45:31;83.20;;;76.43;;
5710;SDS011;61291;52.524;13.422;2023-05-16T01:48:08;80.07;;;73.70;;
5710;SDS011;61291;52.524;13.422;2023-05-16T01:50:38;83.17;;;76.27;;
5710;SDS011;61291;52.524;13.422;2023-05-16T01:53:18;83.67;;;77.10;;
5710;SDS011;61291;52.524;13.422;2023-05-16T01:55:52;83.30;;;76.60;;
5710;SDS011;61291;52.524;13.422;2023-05-16T01:58:21;82.30;;;75.20;;
5710;SDS011;61291;52.524;13.422;2023-05-16T02:00:52;84.87;;;77.53;;
5710;SDS011;61291;52.524;13.422;2023-05-16T02:03:18;84.27;;;77.70;;
5710;SDS011;61291;52.524;13.422;2023-05-16T02:05:43;88.30;;;81.37;;
5710;SDS011;61291;52.524;13.422;2023-05-16T02:08:09;76.50;;;71.00;;
5710;SDS011;61291;52.524;13.422;2023-05-16T02:10:34;83.53;;;76.53;;
5710;SDS011;61291;52.524;13.422;2023-05-16T02:13:00;84.30;;;76.73;;
5710;SDS011;61291;52.524;13.422;2023-05-16T02:15:26;89.27;;;82.33;;
5710;SDS011;61291;52.524;13.422;2023-05-16T02:17:51;85.23;;;78.43;;
5710;SDS011;61291;52.524;13.422;2023-05-16T02:20:16;85.70;;;79.40;;
5710;SDS011;61291;52.524;13.422;2023-05-16T02:22:42;87.97;;;80.93;;
5710;SDS011;61291;52.524;13.422;2023-05-16T02:25:08;81.77;;;75.47;;
5710;SDS011;61291;52.524;13.422;2023-05-16T02:27:34;94.73;;;86.83;;
5710;SDS011;61291;52.524;13.422;2023-05-16T02:30:00;85.60;;;77.97;;
5710;SDS011;61291;52.524;13.422;2023-05-16T02:32:26;86.43;;;78.37;;
5710;SDS011;61291;52.524;13.422;2023-05-16T02:34:51;85.67;;;78.87;;
5710;SDS011;61291;52.524;13.422;2023-05-16T02:37:17;84.53;;;77.40;;
5710;SDS011;61291;52.524;13.422;2023-05-16T02:39:42;98.53;;;91.47;;
5710;SDS011;61291;52.524;13.422;2023-05-16T02:42:08;86.40;;;79.30;;
5710;SDS011;61291;52.524;13.422;2023-05-16T02:44:33;84.03;;;77.57;;
5710;SDS011;61291;52.524;13.422;2023-05-16T02:46:59;86.20;;;78.80;;
5710;SDS011;61291;52.524;13.422;2023-05-16T02:49:24;85.90;;;78.50;;
5710;SDS011;61291;52.524;13.422;2023-05-16T02:51:50;80.70;;;74.50;;
5710;SDS011;61291;52.524;13.422;2023-05-16T02:54:16;83.90;;;77.00;;
5710;SDS011;61291;52.524;13.422;2023-05-16T02:56:41;79.40;;;72.70;;
5710;SDS011;61291;52.524;13.422;2023-05-16T02:59:07;81.03;;;74.17;;
5710;SDS011;61291;52.524;13.422;2023-05-16T03:01:32;80.63;;;74.40;;
5710;SDS011;61291;52.524;13.422;2023-05-16T03:03:58;82.63;;;75.80;;
5710;SDS011;61291;52.524;13.422;2023-05-16T03:06:24;77.07;;;71.10;;
5710;SDS011;61291;52.524;13.422;2023-05-16T03:08:49;77.93;;;71.53;;
5710;SDS011;61291;52.524;13.422;2023-05-16T03:11:15;83.70;;;76.87;;
5710;SDS011;61291;52.524;13.422;2023-05-16T03:13:44;82.20;;;75.00;;
5710;SDS011;61291;52.524;13.422;2023-05-16T03:16:10;84.43;;;77.77;;
5710;SDS011;61291;52.524;13.422;2023-05-16T03:18:35;88.17;;;81.40;;
5710;SDS011;61291;52.524;13.422;2023-05-16T03:21:01;82.80;;;76.60;;
5710;SDS011;61291;52.524;13.422;2023-05-16T03:23:27;88.93;;;80.80;;
5710;SDS011;61291;52.524;13.422;2023-05-16T03:25:52;83.77;;;77.10;;
5710;SDS011;61291;52.524;13.422;2023-05-16T03:28:18;85.70;;;78.80;;
5710;SDS011;61291;52.524;13.422;2023-05-16T03:30:44;82.47;;;75.97;;
5710;SDS011;61291;52.524;13.422;2023-05-16T03:33:09;79.70;;;73.40;;
5710;SDS011;61291;52.524;13.422;2023-05-16T03:35:35;90.83;;;83.63;;
5710;SDS011;61291;52.524;13.422;2023-05-16T03:38:01;85.23;;;78.37;;
5710;SDS011;61291;52.524;13.422;2023-05-16T03:40:27;83.57;;;76.87;;
5710;SDS011;61291;52.524;13.422;2023-05-16T03:42:52;84.77;;;78.20;;
5710;SDS011;61291;52.524;13.422;2023-05-16T03:45:18;77.50;;;71.03;;
5710;SDS011;61291;52.524;13.422;2023-05-16T03:47:43;90.33;;;82.20;;
5710;SDS011;61291;52.524;13.422;2023-05-16T03:50:09;85.10;;;78.00;;
5710;SDS011;61291;52.524;13.422;2023-05-16T03:52:35;88.17;;;80.57;;
5710;SDS011;61291;52.524;13.422;2023-05-16T03:55:01;88.60;;;81.50;;
5710;SDS011;61291;52.524;13.422;2023-05-16T03:57:31;85.17;;;78.50;;
5710;SDS011;61291;52.524;13.422;2023-05-16T03:59:57;83.07;;;76.47;;
5710;SDS011;61291;52.524;13.422;2023-05-16T04:02:24;79.53;;;72.87;;
5710;SDS011;61291;52.524;13.422;2023-05-16T04:04:50;83.50;;;76.60;;
5710;SDS011;61291;52.524;13.422;2023-05-16T04:07:15;77.00;;;70.73;;
5710;SDS011;61291;52.524;13.422;2023-05-16T04:09:41;83.37;;;76.90;;
5710;SDS011;61291;52.524;13.422;2023-05-16T04:12:06;79.27;;;71.93;;
5710;SDS011;61291;52.524;13.422;2023-05-16T04:14:33;82.47;;;75.93;;
5710;SDS011;61291;52.524;13.422;2023-05-16T04:16:59;84.03;;;76.43;;
5710;SDS011;61291;52.524;13.422;2023-05-16T04:19:24;81.03;;;74.17;;
5710;SDS011;61291;52.524;13.422;2023-05-16T04:21:50;75.95;;;69.55;;
5710;SDS011;61291;52.524;13.422;2023-05-16T04:24:16;83.53;;;77.03;;
5710;SDS011;61291;52.524;13.422;2023-05-16T04:26:42;83.43;;;76.63;;
5710;SDS011;61291;52.524;13.422;2023-05-16T04:29:07;80.30;;;73.23;;
5710;SDS011;61291;52.524;13.422;2023-05-16T04:31:33;82.30;;;75.60;;
5710;SDS011;61291;52.524;13.422;2023-05-16T04:33:58;84.97;;;77.83;;
5710;SDS011;61291;52.524;13.422;2023-05-16T04:36:23;80.53;;;73.63;;
5710;SDS011;61291;52.524;13.422;2023-05-16T04:38:49;82.90;;;76.30;;
5710;SDS011;61291;52.524;13.422;2023-05-16T04:41:14;81.53;;;74.90;;
5710;SDS011;61291;52.524;13.422;2023-05-16T04:43:40;81.60;;;74.70;;
5710;SDS011;61291;52.524;13.422;2023-05-16T04:46:07;86.23;;;79.13;;
5710;SDS011;61291;52.524;13.422;2023-05-16T04:48:33;80.70;;;74.00;;
5710;SDS011;61291;52.524;13.422;2023-05-16T04:50:58;82.70;;;76.13;;
5710;SDS011;61291;52.524;13.422;2023-05-16T04:53:24;78.20;;;72.00;;
5710;SDS011;61291;52.524;13.422;2023-05-16T04:55:50;82.23;;;76.13;;
5710;SDS011;61291;52.524;13.422;2023-05-16T04:58:15;83.97;;;76.60;;
5710;SDS011;61291;52.524;13.422;2023-05-16T05:00:41;85.50;;;78.07;;
5710;SDS011;61291;52.524;13.422;2023-05-16T05:03:06;82.77;;;76.50;;
5710;SDS011;61291;52.524;13.422;2023-05-16T05:05:32;84.37;;;77.20;;
5710;SDS011;61291;52.524;13.422;2023-05-16T05:07:57;80.30;;;73.90;;
5710;SDS011;61291;52.524;13.422;2023-05-16T05:10:24;89.03;;;81.73;;
5710;SDS011;61291;52.524;13.422;2023-05-16T05:12:51;85.03;;;77.73;;
5710;SDS011;61291;52.524;13.422;2023-05-16T05:15:17;82.07;;;75.37;;
5710;SDS011;61291;52.524;13.422;2023-05-16T05:17:43;79.40;;;73.00;;
5710;SDS011;61291;52.524;13.422;2023-05-16T05:20:08;85.13;;;77.17;;
5710;SDS011;61291;52.524;13.422;2023-05-16T05:22:35;84.17;;;77.00;;
5710;SDS011;61291;52.524;13.422;2023-05-16T05:25:00;82.53;;;74.80;;
5710;SDS011;61291;52.524;13.422;2023-05-16T05:27:26;68.75;;;62.97;;
5710;SDS011;61291;52.524;13.422;2023-05-16T05:29:51;80.07;;;73.50;;
5710;SDS011;61291;52.524;13.422;2023-05-16T05:32:17;83.17;;;75.97;;
5710;SDS011;61291;52.524;13.422;2023-05-16T05:34:42;80.90;;;74.10;;
5710;SDS011;61291;52.524;13.422;2023-05-16T05:37:08;77.00;;;70.40;;
5710;SDS011;61291;52.524;13.422;2023-05-16T05:39:33;74.10;;;68.50;;
5710;SDS011;61291;52.524;13.422;2023-05-16T05:41:59;68.47;;;62.73;;
5710;SDS011;61291;52.524;13.422;2023-05-16T05:44:27;71.93;;;65.87;;
5710;SDS011;61291;52.524;13.422;2023-05-16T05:46:53;72.87;;;67.10;;
5710;SDS011;61291;52.524;13.422;2023-05-16T05:49:18;78.20;;;71.40;;
5710;SDS011;61291;52.524;13.422;2023-05-16T05:51:44;73.80;;;67.77;;
5710;SDS011;61291;52.524;13.422;2023-05-16T05:54:10;81.97;;;75.00;;
5710;SDS011;61291;52.524;13.422;2023-05-16T05:56:35;75.47;;;69.37;;
5710;SDS011;61291;52.524;13.422;2023-05-16T05:59:01;76.90;;;70.90;;
5710;SDS011;61291;52.524;13.422;2023-05-16T06:01:26;84.73;;;78.20;;
5710;SDS011;61291;52.524;13.422;2023-05-16T06:03:52;78.40;;;71.80;;
5710;SDS011;61291;52.524;13.422;2023-05-16T06:06:17;80.50;;;73.10;;
5710;SDS011;61291;52.524;13.422;2023-05-16T06:08:43;74.37;;;68.40;;
5710;SDS011;61291;52.524;13.422;2023-05-16T06:11:08;68.03;;;63.03;;
5710;SDS011;61291;52.524;13.422;2023-05-16T06:13:34;77.00;;;71.10;;
5710;SDS011;61291;52.524;13.422;2023-05-16T06:16:00;77.67;;;71.90;;
5710;SDS011;61291;52.524;13.422;2023-05-16T06:18:25;79.03;;;73.33;;
5710;SDS011;61291;52.524;13.422;2023-05-16T06:20:51;82.67;;;76.10;;
5710;SDS011;61291;52.524;13.422;2023-05-16T06:23:17;78.30;;;72.13;;
5710;SDS011;61291;52.524;13.422;2023-05-16T06:25:43;84.60;;;78.13;;
5710;SDS011;61291;52.524;13.422;2023-05-16T06:28:08;79.57;;;73.70;;
5710;SDS011;61291;52.524;13.422;2023-05-16T06:30:34;83.20;;;76.43;;
5710;SDS011;61291;52.524;13.422;2023-05-16T06:32:59;92.07;;;85.23;;
5710;SDS011;61291;52.524;13.422;2023-05-16T06:35:25;83.87;;;78.00;;
5710;SDS011;61291;52.524;13.422;2023-05-16T06:37:50;80.73;;;74.50;;
5710;SDS011;61291;52.524;13.422;2023-05-16T06:40:16;83.93;;;78.13;;
5710;SDS011;61291;52.524;13.422;2023-05-16T06:42:41;79.10;;;73.30;;
5710;SDS011;61291;52.524;13.422;2023-05-16T06:45:07;76.03;;;70.50;;
5710;SDS011;61291;52.524;13.422;2023-05-16T06:47:33;74.85;;;69.45;;
5710;SDS011;61291;52.524;13.422;2023-05-16T06:49:58;72.27;;;66.30;;
5710;SDS011;61291;52.524;13.422;2023-05-16T06:52:24;71.80;;;66.07;;
5710;SDS011;61291;52.524;13.422;2023-05-16T06:54:50;76.37;;;70.97;;
5710;SDS011;61291;52.524;13.422;2023-05-16T06:57:16;72.80;;;67.80;;
5710;SDS011;61291;52.524;13.422;2023-05-16T06:59:41;67.93;;;62.00;;
5710;SDS011;61291;52.524;13.422;2023-05-16T07:02:07;70.77;;;65.80;;
5710;SDS011;61291;52.524;13.422;2023-05-16T07:04:32;74.57;;;69.67;;
5710;SDS011;61291;52.524;13.422;2023-05-16T07:07:00;73.53;;;67.67;;
5710;SDS011;61291;52.524;13.422;2023-05-16T07:09:26;77.70;;;71.90;;
5710;SDS011;61291;52.524;13.422;2023-05-16T07:11:51;72.60;;;67.40;;
5710;SDS011;61291;52.524;13.422;2023-05-16T07:14:16;71.63;;;66.33;;
5710;SDS011;61291;52.524;13.422;2023-05-16T07:16:42;78.03;;;72.53;;
5710;SDS011;61291;52.524;13.422;2023-05-16T07:19:08;70.23;;;64.43;;
5710;SDS011;61291;52.524;13.422;2023-05-16T07:21:33;76.83;;;70.97;;
5710;SDS011;61291;52.524;13.422;2023-05-16T07:23:59;75.73;;;70.43;;
5710;SDS011;61291;52.524;13.422;2023-05-16T07:26:24;77.00;;;70.50;;
5710;SDS011;61291;52.524;13.422;2023-05-16T07:28:50;75.37;;;70.07;;
5710;SDS011;61291;52.524;13.422;2023-05-16T07:31:16;75.27;;;70.10;;
5710;SDS011;61291;52.524;13.422;2023-05-16T07:33:41;78.63;;;73.10;;
5710;SDS011;61291;52.524;13.422;2023-05-16T07:36:07;75.87;;;70.57;;
5710;SDS011;61291;52.524;13.422;2023-05-16T07:38:33;77.90;;;72.20;;
5710;SDS011;61291;52.524;13.422;2023-05-16T07:40:59;73.50;;;68.30;;
5710;SDS011;61291;52.524;13.422;2023-05-16T07:43:25;76.03;;;70.93;;
5710;SDS011;61291;52.524;13.422;2023-05-16T07:45:50;75.23;;;69.43;;
5710;SDS011;61291;52.524;13.422;2023-05-16T07:48:16;78.63;;;72.60;;
5710;SDS011;61291;52.524;13.422;2023-05-16T07:50:42;75.73;;;70.13;;
5710;SDS011;61291;52.524;13.422;2023-05-16T07:53:07;74.77;;;69.50;;
5710;SDS011;61291;52.524;13.422;2023-05-16T07:55:33;73.43;;;68.17;;
5710;SDS011;61291;52.524;13.422;2023-05-16T07:57:59;79.33;;;73.50;;
5710;SDS011;61291;52.524;13.422;2023-05-16T08:00:24;76.83;;;71.60;;
5710;SDS011;61291;52.524;13.422;2023-05-16T08:02:50;73.77;;;68.67;;
5710;SDS011;61291;52.524;13.422;2023-05-16T08:05:15;74.10;;;68.90;;
5710;SDS011;61291;52.524;13.422;2023-05-16T08:07:41;75.20;;;68.40;;
5710;SDS011;61291;52.524;13.422;2023-05-16T08:10:07;72.83;;;67.57;;
5710;SDS011;61291;52.524;13.422;2023-05-16T08:12:32;74.23;;;68.37;;
5710;SDS011;61291;52.524;13.422;2023-05-16T08:14:58;72.53;;;67.43;;
5710;SDS011;61291;52.524;13.422;2023-05-16T08:17:23;73.33;;;67.90;;
5710;SDS011;61291;52.524;13.422;2023-05-16T08:19:49;69.63;;;64.63;;
5710;SDS011;61291;52.524;13.422;2023-05-16T08:22:14;73.77;;;68.63;;
5710;SDS011;61291;52.524;13.422;2023-05-16T08:24:40;78.00;;;72.47;;
5710;SDS011;61291;52.524;13.422;2023-05-16T08:27:06;76.30;;;71.03;;
5710;SDS011;61291;52.524;13.422;2023-05-16T08:29:32;74.73;;;69.63;;
5710;SDS011;61291;52.524;13.422;2023-05-16T08:31:58;69.90;;;64.70;;
5710;SDS011;61291;52.524;13.422;2023-05-16T08:34:23;67.47;;;62.30;;
5710;SDS011;61291;52.524;13.422;2023-05-16T08:36:49;70.77;;;65.87;;
5710;SDS011;61291;52.524;13.422;2023-05-16T08:39:14;73.43;;;68.63;;
5710;SDS011;61291;52.524;13.422;2023-05-16T08:41:40;69.27;;;63.87;;
5710;SDS011;61291;52.524;13.422;2023-05-16T08:44:05;72.07;;;67.07;;
5710;SDS011;61291;52.524;13.422;2023-05-16T08:46:31;73.97;;;68.97;;
5710;SDS011;61291;52.524;13.422;2023-05-16T08:48:59;75.87;;;70.30;;
5710;SDS011;61291;52.524;13.422;2023-05-16T08:51:26;72.60;;;67.10;;
5710;SDS011;61291;52.524;13.422;2023-05-16T08:54:02;76.27;;;70.73;;
5710;SDS011;61291;52.524;13.422;2023-05-16T08:56:29;72.97;;;67.87;;
5710;SDS011;61291;52.524;13.422;2023-05-16T08:58:57;71.10;;;66.20;;
5710;SDS011;61291;52.524;13.422;2023-05-16T09:01:23;73.57;;;68.43;;
5710;SDS011;61291;52.524;13.422;2023-05-16T09:03:49;66.27;;;61.83;;
5710;SDS011;61291;52.524;13.422;2023-05-16T09:06:15;71.80;;;66.67;;
5710;SDS011;61291;52.524;13.422;2023-05-16T09:08:41;71.57;;;66.60;;
5710;SDS011;61291;52.524;13.422;2023-05-16T09:11:07;71.97;;;67.10;;
5710;SDS011;61291;52.524;13.422;2023-05-16T09:13:33;68.87;;;64.20;;
5710;SDS011;61291;52.524;13.422;2023-05-16T09:18:34;72.43;;;67.37;;
5710;SDS011;61291;52.524;13.422;2023-05-16T09:21:01;72.93;;;67.70;;
5710;SDS011;61291;52.524;13.422;2023-05-16T09:23:28;73.47;;;68.37;;
5710;SDS011;61291;52.524;13.422;2023-05-16T09:25:54;72.90;;;67.60;;
5710;SDS011;61291;52.524;13.422;2023-05-16T09:28:21;75.63;;;70.43;;
5710;SDS011;61291;52.524;13.422;2023-05-16T09:30:46;73.80;;;68.20;;
5710;SDS011;61291;52.524;13.422;2023-05-16T09:33:12;70.50;;;65.90;;
5710;SDS011;61291;52.524;13.422;2023-05-16T09:35:38;77.07;;;71.80;;
5710;SDS011;61291;52.524;13.422;2023-05-16T09:38:04;78.83;;;73.20;;
5710;SDS011;61291;52.524;13.422;2023-05-16T09:40:29;76.83;;;71.17;;
5710;SDS011;61291;52.524;13.422;2023-05-16T09:43:02;80.53;;;74.80;;
5710;SDS011;61291;52.524;13.422;2023-05-16T09:45:29;81.03;;;75.60;;
5710;SDS011;61291;52.524;13.422;2023-05-16T09:48:11;67.18;;;61.83;;
5710;SDS011;61291;52.524;13.422;2023-05-16T09:50:37;75.27;;;70.17;;
5710;SDS011;61291;52.524;13.422;2023-05-16T09:53:03;78.60;;;72.80;;
5710;SDS011;61291;52.524;13.422;2023-05-16T09:55:29;73.93;;;68.63;;
5710;SDS011;61291;52.524;13.422;2023-05-16T09:57:55;74.80;;;69.40;;
5710;SDS011;61291;52.524;13.422;2023-05-16T10:00:21;73.03;;;68.20;;
5710;SDS011;61291;52.524;13.422;2023-05-16T10:02:54;77.33;;;72.03;;
5710;SDS011;61291;52.524;13.422;2023-05-16T10:05:21;74.10;;;69.20;;
5710;SDS011;61291;52.524;13.422;2023-05-16T10:07:52;71.60;;;66.70;;
5710;SDS011;61291;52.524;13.422;2023-05-16T10:10:20;69.30;;;64.30;;
5710;SDS011;61291;52.524;13.422;2023-05-16T10:12:46;73.53;;;68.47;;
5710;SDS011;61291;52.524;13.422;2023-05-16T10:15:12;71.35;;;66.15;;
5710;SDS011;61291;52.524;13.422;2023-05-16T10:17:39;79.07;;;73.70;;
5710;SDS011;61291;52.524;13.422;2023-05-16T10:20:09;75.43;;;69.73;;
5710;SDS011;61291;52.524;13.422;2023-05-16T10:22:41;75.43;;;70.03;;
5710;SDS011;61291;52.524;13.422;2023-05-16T10:27:39;72.63;;;67.83;;
5710;SDS011;61291;52.524;13.422;2023-05-16T10:30:06;68.53;;;64.03;;
5710;SDS011;61291;52.524;13.422;2023-05-16T10:32:33;74.83;;;69.47;;
5710;SDS011;61291;52.524;13.422;2023-05-16T10:35:00;69.63;;;64.23;;
5710;SDS011;61291;52.524;13.422;2023-05-16T10:37:27;74.03;;;67.40;;
5710;SDS011;61291;52.524;13.422;2023-05-16T10:39:55;76.37;;;70.30;;
5710;SDS011;61291;52.524;13.422;2023-05-16T10:42:22;77.87;;;72.27;;
5710;SDS011;61291;52.524;13.422;2023-05-16T10:44:47;72.63;;;67.27;;
5710;SDS011;61291;52.524;13.422;2023-05-16T10:47:17;79.70;;;71.80;;
5710;SDS011;61291;52.524;13.422;2023-05-16T10:49:43;76.87;;;71.57;;
5710;SDS011;61291;52.524;13.422;2023-05-16T10:52:10;62.70;;;57.80;;
5710;SDS011;61291;52.524;13.422;2023-05-16T10:54:40;75.33;;;69.67;;
5710;SDS011;61291;52.524;13.422;2023-05-16T10:57:09;71.67;;;66.07;;
5710;SDS011;61291;52.524;13.422;2023-05-16T10:59:44;70.88;;;65.57;;
5710;SDS011;61291;52.524;13.422;2023-05-16T11:02:21;76.20;;;70.27;;
5710;SDS011;61291;52.524;13.422;2023-05-16T11:04:52;71.20;;;65.93;;
5710;SDS011;61291;52.524;13.422;2023-05-16T11:07:20;70.33;;;65.33;;
5710;SDS011;61291;52.524;13.422;2023-05-16T11:12:44;74.70;;;69.23;;
5710;SDS011;61291;52.524;13.422;2023-05-16T11:15:18;74.20;;;68.30;;
5710;SDS011;61291;52.524;13.422;2023-05-16T11:17:47;72.57;;;67.57;;
5710;SDS011;61291;52.524;13.422;2023-05-16T11:20:25;76.30;;;70.30;;
5710;SDS011;61291;52.524;13.422;2023-05-16T11:25:41;78.90;;;73.00;;
5710;SDS011;61291;52.524;13.422;2023-05-16T11:28:09;74.50;;;68.80;;
5710;SDS011;61291;52.524;13.422;2023-05-16T11:30:41;77.33;;;71.53;;
5710;SDS011;61291;52.524;13.422;2023-05-16T11:33:29;80.00;;;74.40;;
5710;SDS011;61291;52.524;13.422;2023-05-16T11:35:58;82.47;;;76.30;;
5710;SDS011;61291;52.524;13.422;2023-05-16T11:38:28;77.10;;;69.70;;
5710;SDS011;61291;52.524;13.422;2023-05-16T11:41:00;81.20;;;75.60;;
5710;SDS011;61291;52.524;13.422;2023-05-16T11:43:35;76.03;;;69.90;;
5710;SDS011;61291;52.524;13.422;2023-05-16T11:46:02;82.80;;;76.57;;
5710;SDS011;61291;52.524;13.422;2023-05-16T11:48:28;76.43;;;70.37;;
5710;SDS011;61291;52.524;13.422;2023-05-16T11:50:54;76.10;;;70.50;;
5710;SDS011;61291;52.524;13.422;2023-05-16T11:53:20;79.00;;;73.30;;
5710;SDS011;61291;52.524;13.422;2023-05-16T11:55:46;75.67;;;69.67;;
5710;SDS011;61291;52.524;13.422;2023-05-16T11:58:16;75.30;;;69.87;;
5710;SDS011;61291;52.524;13.422;2023-05-16T12:00:48;73.87;;;68.23;;
5710;SDS011;61291;52.524;13.422;2023-05-16T12:03:16;74.70;;;69.23;;
5710;SDS011;61291;52.524;13.422;2023-05-16T12:05:52;71.05;;;65.55;;
5710;SDS011;61291;52.524;13.422;2023-05-16T12:08:19;81.07;;;74.83;;
5710;SDS011;61291;52.524;13.422;2023-05-16T12:10:47;78.10;;;72.10;;
5710;SDS011;61291;52.524;13.422;2023-05-16T12:13:14;75.20;;;69.70;;
5710;SDS011;61291;52.524;13.422;2023-05-16T12:15:40;73.17;;;67.40;;
5710;SDS011;61291;52.524;13.422;2023-05-16T12:18:06;77.03;;;71.40;;
5710;SDS011;61291;52.524;13.422;2023-05-16T12:20:33;80.53;;;74.77;;
5710;SDS011;61291;52.524;13.422;2023-05-16T12:22:58;74.07;;;68.73;;
5710;SDS011;61291;52.524;13.422;2023-05-16T12:25:28;74.67;;;68.70;;
5710;SDS011;61291;52.524;13.422;2023-05-16T12:27:58;77.23;;;71.23;;
5710;SDS011;61291;52.524;13.422;2023-05-16T12:30:25;80.30;;;74.70;;
5710;SDS011;61291;52.524;13.422;2023-05-16T12:32:55;77.80;;;72.00;;
5710;SDS011;61291;52.524;13.422;2023-05-16T12:35:21;84.97;;;78.97;;
5710;SDS011;61291;52.524;13.422;2023-05-16T12:37:48;85.47;;;79.00;;
5710;SDS011;61291;52.524;13.422;2023-05-16T12:40:17;75.97;;;70.60;;
5710;SDS011;61291;52.524;13.422;2023-05-16T12:42:44;83.93;;;77.70;;
5710;SDS011;61291;52.524;13.422;2023-05-16T12:45:14;81.93;;;75.90;;
5710;SDS011;61291;52.524;13.422;2023-05-16T12:47:40;89.60;;;82.13;;
5710;SDS011;61291;52.524;13.422;2023-05-16T12:50:09;81.53;;;76.13;;
5710;SDS011;61291;52.524;13.422;2023-05-16T12:52:44;80.43;;;74.47;;
5710;SDS011;61291;52.524;13.422;2023-05-16T12:55:11;75.47;;;68.10;;
5710;SDS011;61291;52.524;13.422;2023-05-16T12:57:37;71.93;;;65.30;;
5710;SDS011;61291;52.524;13.422;2023-05-16T13:00:07;80.03;;;73.40;;
5710;SDS011;61291;52.524;13.422;2023-05-16T13:02:34;77.73;;;71.20;;
5710;SDS011;61291;52.524;13.422;2023-05-16T13:04:59;79.63;;;73.37;;
5710;SDS011;61291;52.524;13.422;2023-05-16T13:07:24;77.13;;;70.33;;
5710;SDS011;61291;52.524;13.422;2023-05-16T13:09:50;76.10;;;69.63;;
5710;SDS011;61291;52.524;13.422;2023-05-16T13:12:15;75.63;;;69.53;;
5710;SDS011;61291;52.524;13.422;2023-05-16T13:14:41;79.20;;;72.30;;
5710;SDS011;61291;52.524;13.422;2023-05-16T13:17:06;78.33;;;72.13;;
5710;SDS011;61291;52.524;13.422;2023-05-16T13:19:32;67.30;;;61.50;;
5710;SDS011;61291;52.524;13.422;2023-05-16T13:21:58;71.37;;;65.30;;
5710;SDS011;61291;52.524;13.422;2023-05-16T13:24:23;75.43;;;69.37;;
5710;SDS011;61291;52.524;13.422;2023-05-16T13:26:49;83.50;;;76.20;;
5710;SDS011;61291;52.524;13.422;2023-05-16T13:29:14;72.70;;;66.77;;
5710;SDS011;61291;52.524;13.422;2023-05-16T13:31:40;76.20;;;69.60;;
5710;SDS011;61291;52.524;13.422;2023-05-16T13:34:05;76.27;;;69.50;;
5710;SDS011;61291;52.524;13.422;2023-05-16T13:36:31;76.33;;;70.43;;
5710;SDS011;61291;52.524;13.422;2023-05-16T13:38:56;74.47;;;68.70;;
5710;SDS011;61291;52.524;13.422;2023-05-16T13:41:22;75.97;;;69.97;;
5710;SDS011;61291;52.524;13.422;2023-05-16T13:43:47;75.13;;;69.77;;
5710;SDS011;61291;52.524;13.422;2023-05-16T13:46:13;78.40;;;72.43;;
5710;SDS011;61291;52.524;13.422;2023-05-16T13:48:39;70.93;;;65.60;;
5710;SDS011;61291;52.524;13.422;2023-05-16T13:51:06;77.90;;;71.40;;
5710;SDS011;61291;52.524;13.422;2023-05-16T13:53:31;73.10;;;67.37;;
5710;SDS011;61291;52.524;13.422;2023-05-16T13:55:57;65.75;;;59.75;;
5710;SDS011;61291;52.524;13.422;2023-05-16T13:58:22;69.20;;;63.10;;
5710;SDS011;61291;52.524;13.422;2023-05-16T14:00:48;71.60;;;66.17;;
5710;SDS011;61291;52.524;13.422;2023-05-16T14:03:13;76.97;;;70.93;;
5710;SDS011;61291;52.524;13.422;2023-05-16T14:05:39;78.53;;;72.53;;
5710;SDS011;61291;52.524;13.422;2023-05-16T14:08:04;74.10;;;68.47;;
5710;SDS011;61291;52.524;13.422;2023-05-16T14:10:30;77.00;;;71.03;;
5710;SDS011;61291;52.524;13.422;2023-05-16T14:12:56;69.17;;;63.73;;
5710;SDS011;61291;52.524;13.422;2023-05-16T14:15:21;70.07;;;63.80;;
5710;SDS011;61291;52.524;13.422;2023-05-16T14:17:46;66.43;;;61.07;;
5710;SDS011;61291;52.524;13.422;2023-05-16T14:20:12;64.63;;;59.57;;
5710;SDS011;61291;52.524;13.422;2023-05-16T14:22:39;70.77;;;64.90;;
5710;SDS011;61291;52.524;13.422;2023-05-16T14:25:04;72.30;;;66.90;;
5710;SDS011;61291;52.524;13.422;2023-05-16T14:27:31;70.93;;;65.33;;
5710;SDS011;61291;52.524;13.422;2023-05-16T14:29:56;69.87;;;64.47;;
5710;SDS011;61291;52.524;13.422;2023-05-16T14:32:22;68.03;;;63.03;;
5710;SDS011;61291;52.524;13.422;2023-05-16T14:34:48;68.73;;;64.03;;
5710;SDS011;61291;52.524;13.422;2023-05-16T14:37:13;69.13;;;64.03;;